createdAt,value
2023-01-27T00:00:10.479Z,100566.92
2023-01-27T00:03:04.107Z,100573.30
2023-01-27T00:05:36.933Z,100568.99
2023-01-27T00:08:49.463Z,100565.05
2023-01-27T00:11:40.365Z,100566.77
2023-01-27T00:17:07.489Z,100568.71
2023-01-27T00:19:39.069Z,100563.48
2023-01-27T00:22:28.709Z,100563.79
2023-01-27T00:25:00.754Z,100565.71
2023-01-27T00:27:34.554Z,100562.36
2023-01-27T00:30:09.165Z,100562.77
2023-01-27T00:32:57.975Z,100566.83
2023-01-27T00:35:27.654Z,100568.36
2023-01-27T00:38:00.292Z,100576.61
2023-01-27T00:40:32.413Z,100570.61
2023-01-27T00:43:05.434Z,100572.23
2023-01-27T00:45:49.216Z,100571.40
2023-01-27T00:48:19.261Z,100566.73
2023-01-27T00:50:49.642Z,100568.46
2023-01-27T00:53:20.155Z,100567.08
2023-01-27T00:55:51.454Z,100569.18
2023-01-27T00:58:22.823Z,100572.85
2023-01-27T01:00:56.431Z,100575.48
2023-01-27T01:03:32.709Z,100580.27
2023-01-27T01:06:06.147Z,100576.71
2023-01-27T01:08:37.396Z,100575.31
2023-01-27T01:11:10.648Z,100582.33
2023-01-27T01:13:44.304Z,100580.85
2023-01-27T01:16:17.900Z,100580.55
2023-01-27T01:18:48.932Z,100579.31
2023-01-27T01:21:21.433Z,100578.05
2023-01-27T01:23:51.979Z,100578.00
2023-01-27T01:26:23.156Z,100576.35
2023-01-27T01:28:53.760Z,100573.22
2023-01-27T01:31:26.514Z,100571.35
2023-01-27T01:33:58.373Z,100573.31
2023-01-27T01:36:36.108Z,100574.07
2023-01-27T01:39:08.568Z,100577.59
2023-01-27T01:41:41.684Z,100579.86
2023-01-27T01:44:28.607Z,100577.29
2023-01-27T01:46:59.056Z,100580.11
2023-01-27T01:49:32.474Z,100584.98
2023-01-27T01:52:11.783Z,100582.70
2023-01-27T01:54:55.498Z,100582.30
2023-01-27T01:57:37.888Z,100581.27
2023-01-27T02:00:11.868Z,100578.90
2023-01-27T02:02:48.429Z,100578.21
2023-01-27T02:05:33.800Z,100575.39
2023-01-27T02:08:17.922Z,100570.86
2023-01-27T02:10:50.869Z,100566.95
2023-01-27T02:13:22.325Z,100572.14
2023-01-27T02:15:54.345Z,100571.66
2023-01-27T02:18:27.045Z,100575.88
2023-01-27T02:21:02.652Z,100575.30
2023-01-27T02:24:11.203Z,100572.67
2023-01-27T02:26:46.981Z,100575.31
2023-01-27T02:29:20.627Z,100579.84
2023-01-27T02:31:53.344Z,100588.89
2023-01-27T02:34:29.093Z,100590.21
2023-01-27T02:38:19.189Z,100594.19
2023-01-27T02:40:54.529Z,100598.41
2023-01-27T02:43:26.244Z,100605.23
2023-01-27T02:45:57.356Z,100607.08
2023-01-27T02:48:28.372Z,100602.98
2023-01-27T02:51:04.572Z,100602.24
2023-01-27T02:53:36.681Z,100600.00
2023-01-27T02:56:10.901Z,100599.55
2023-01-27T02:58:42.607Z,100601.20
2023-01-27T03:01:19.728Z,100609.98
2023-01-27T03:03:52.830Z,100611.23
2023-01-27T03:06:23.869Z,100608.30
2023-01-27T03:08:54.271Z,100610.80
2023-01-27T03:11:43.595Z,100612.17
2023-01-27T03:14:16.892Z,100615.87
2023-01-27T03:17:27.851Z,100621.16
2023-01-27T03:19:58.723Z,100621.09
2023-01-27T03:22:30.166Z,100620.02
2023-01-27T03:25:01.992Z,100622.52
2023-01-27T03:27:33.252Z,100622.48
2023-01-27T03:30:39.977Z,100621.70
2023-01-27T03:33:16.551Z,100621.80
2023-01-27T03:36:15.087Z,100623.05
2023-01-27T03:39:09.678Z,100624.58
2023-01-27T03:42:00.557Z,100623.38
2023-01-27T03:44:51.812Z,100621.60
2023-01-27T03:47:27.562Z,100620.73
2023-01-27T03:49:57.648Z,100623.55
2023-01-27T03:52:29.073Z,100625.11
2023-01-27T03:54:59.722Z,100627.50
2023-01-27T03:57:28.790Z,100625.77
2023-01-27T04:00:00.898Z,100620.15
2023-01-27T04:02:52.476Z,100618.30
2023-01-27T04:05:41.219Z,100623.56
2023-01-27T04:08:15.579Z,100620.04
2023-01-27T04:11:08.031Z,100613.71
2023-01-27T04:13:40.177Z,100616.45
2023-01-27T04:16:10.651Z,100622.88
2023-01-27T04:18:42.745Z,100624.02
2023-01-27T04:21:17.402Z,100627.63
2023-01-27T04:23:50.226Z,100633.82
2023-01-27T04:26:24.109Z,100643.35
2023-01-27T04:28:55.754Z,100643.52
2023-01-27T04:31:28.827Z,100646.45
2023-01-27T04:34:01.050Z,100645.95
2023-01-27T04:41:03.437Z,100648.02
2023-01-27T04:43:37.136Z,100650.05
2023-01-27T04:46:08.833Z,100648.30
2023-01-27T04:48:40.754Z,100646.69
2023-01-27T04:51:12.089Z,100651.59
2023-01-27T04:53:42.919Z,100655.80
2023-01-27T04:56:23.003Z,100660.45
2023-01-27T04:58:54.103Z,100666.24
2023-01-27T05:01:25.553Z,100670.55
2023-01-27T05:03:55.660Z,100672.70
2023-01-27T05:06:27.959Z,100679.19
2023-01-27T05:09:00.086Z,100678.45
2023-01-27T05:11:30.086Z,100678.80
2023-01-27T05:13:59.728Z,100686.46
2023-01-27T05:16:31.521Z,100688.89
2023-01-27T05:19:02.475Z,100690.91
2023-01-27T05:21:35.337Z,100687.92
2023-01-27T05:24:07.986Z,100691.48
2023-01-27T05:26:39.035Z,100695.61
2023-01-27T05:29:13.595Z,100697.43
2023-01-27T05:31:46.274Z,100696.71
2023-01-27T05:34:19.535Z,100702.95
2023-01-27T05:36:53.573Z,100703.79
2023-01-27T05:39:27.882Z,100707.04
2023-01-27T05:41:59.799Z,100710.60
2023-01-27T05:44:31.605Z,100714.59
2023-01-27T05:47:04.094Z,100721.66
2023-01-27T05:49:36.259Z,100719.95
2023-01-27T05:52:09.471Z,100716.73
2023-01-27T05:54:40.790Z,100717.94
2023-01-27T05:57:29.466Z,100720.73
2023-01-27T06:00:51.961Z,100727.21
2023-01-27T06:03:30.476Z,100728.35
2023-01-27T06:06:10.302Z,100732.75
2023-01-27T06:09:06.161Z,100735.02
2023-01-27T06:11:42.413Z,100735.36
2023-01-27T06:14:28.657Z,100732.02
2023-01-27T06:17:30.562Z,100736.52
2023-01-27T06:20:16.617Z,100741.39
2023-01-27T06:22:51.379Z,100738.86
2023-01-27T06:25:25.059Z,100743.46
2023-01-27T06:28:55.638Z,100744.83
2023-01-27T06:35:05.770Z,100745.21
2023-01-27T06:39:12.902Z,100745.30
2023-01-27T06:42:01.305Z,100739.35
2023-01-27T06:44:35.205Z,100744.27
2023-01-27T06:47:44.516Z,100747.89
2023-01-27T06:50:16.226Z,100752.46
2023-01-27T06:53:08.512Z,100752.54
2023-01-27T06:56:04.543Z,100761.91
2023-01-27T06:58:40.466Z,100761.43
2023-01-27T07:01:35.412Z,100765.84
2023-01-27T07:04:21.165Z,100767.34
2023-01-27T07:06:50.777Z,100767.23
2023-01-27T07:09:26.367Z,100769.52
2023-01-27T07:12:01.659Z,100772.83
2023-01-27T07:14:32.556Z,100772.83
2023-01-27T07:17:04.585Z,100774.09
2023-01-27T07:19:46.267Z,100774.94
2023-01-27T07:22:21.541Z,100777.46
2023-01-27T07:25:04.371Z,100776.45
2023-01-27T07:27:39.321Z,100780.80
2023-01-27T07:30:46.105Z,100782.66
2023-01-27T07:33:53.504Z,100780.73
2023-01-27T07:37:29.740Z,100788.59
2023-01-27T07:40:13.043Z,100789.46
2023-01-27T07:42:45.828Z,100784.76
2023-01-27T07:45:27.749Z,100791.60
2023-01-27T07:48:26.212Z,100794.01
2023-01-27T07:51:30.763Z,100789.42
2023-01-27T07:55:01.083Z,100786.63
2023-01-27T07:58:17.875Z,100795.48
2023-01-27T08:01:52.191Z,100788.98
2023-01-27T08:08:24.743Z,100786.75
2023-01-27T08:12:09.858Z,100785.34
2023-01-27T08:19:21.145Z,100779.61
2023-01-27T08:28:51.949Z,100790.92
2023-01-27T08:32:32.417Z,100788.34
2023-01-27T08:36:02.866Z,100793.05
2023-01-27T08:39:41.428Z,100800.11
2023-01-27T08:43:26.104Z,100811.41
2023-01-27T08:46:42.552Z,100815.10
2023-01-27T08:53:35.805Z,100828.86
2023-01-27T10:36:24.975Z,100864.75
2023-01-27T10:43:24.034Z,100874.23
2023-01-27T11:06:27.290Z,100884.14
2023-01-27T11:13:01.287Z,100877.85
2023-01-27T11:16:24.389Z,100880.48
2023-01-27T11:26:27.832Z,100869.85
2023-01-27T11:49:13.404Z,100874.36
2023-01-27T11:52:14.200Z,100874.67
2023-01-27T11:55:27.272Z,100872.14
2023-01-27T11:59:17.377Z,100870.98
2023-01-27T12:01:57.808Z,100867.48
2023-01-27T12:08:10.033Z,100870.92
2023-01-27T12:11:36.670Z,100870.90
2023-01-27T12:14:42.266Z,100862.09
2023-01-27T12:21:03.189Z,100862.59
2023-01-27T12:25:09.902Z,100863.27
2023-01-27T12:38:46.719Z,100867.42
2023-01-27T12:42:13.348Z,100867.64
2023-01-27T12:45:55.969Z,100869.98
2023-01-27T12:49:26.880Z,100870.39
2023-01-27T12:56:20.255Z,100862.45
2023-01-27T12:59:29.748Z,100864.61
2023-01-27T13:02:48.249Z,100864.67
2023-01-27T13:06:40.076Z,100876.58
2023-01-27T13:10:35.191Z,100879.84
2023-01-27T13:13:49.992Z,100876.72
2023-01-27T13:17:20.336Z,100870.88
2023-01-27T13:20:49.159Z,100876.41
2023-01-27T13:24:11.261Z,100878.25
2023-01-27T13:27:48.183Z,100881.41
2023-01-27T13:31:01.437Z,100881.23
2023-01-27T13:38:31.849Z,100880.34
2023-01-27T14:02:10.296Z,100909.67
2023-01-27T14:08:51.569Z,100910.52
2023-01-27T14:22:01.102Z,100932.48
2023-01-27T14:25:31.919Z,100926.25
2023-01-27T14:29:24.412Z,100922.60
2023-01-27T14:57:58.243Z,100929.30
2023-01-27T15:04:48.456Z,100930.79
2023-01-27T15:28:06.628Z,100942.46
2023-01-27T15:47:54.170Z,100947.44
2023-01-27T16:24:29.008Z,100968.56
2023-01-27T16:28:05.756Z,100967.52
2023-01-27T16:35:01.826Z,100977.17
2023-01-27T16:54:24.051Z,100975.90
2023-01-27T17:17:21.458Z,100996.03
2023-01-27T17:36:45.378Z,101007.70
2023-01-27T17:40:16.492Z,101011.48
2023-01-27T17:46:51.100Z,101014.45
2023-01-27T18:07:38.115Z,101038.24
2023-01-27T18:11:18.005Z,101044.79
2023-01-27T18:15:08.211Z,101047.17
2023-01-27T18:19:10.570Z,101054.19
2023-01-27T19:36:43.183Z,101079.88
